LTAG/ADF METAR and TAF weather

Enter ICAO airport designator
Station Type Date Time Source
LTAG METAR 2024/04/15 08:50 UTC NOAA

LTAG 150850Z 33008KT CAVOK 27/04 Q1014 NOSIG


Station Type Date Time Source
LTAG Decoded METAR 2024/04/15 08:50 UTC NOAA

Adana / Incirlik, Turkey (LTAG) 37-00N 035-25E 66M
Apr 15, 2024 - 04:50 AM EDT / 2024.04.15 0850 UTC
Wind: from the NNW (330 degrees) at 9 MPH (8 KT):0
Visibility: greater than 7 mile(s):0
Temperature: 80 F (27 C)
Dew Point: 39 F (4 C)
Relative Humidity: 22%
Pressure (altimeter): 29.94 in. Hg (1014 hPa)
ob: LTAG 150850Z 33008KT CAVOK 27/04 Q1014 NOSIG
cycle: 9

Station Type Date Time Source
LTAG TAF 2024/04/15 06:03 UTC NOAA